createdAt,value
2018-10-02T00:01:19.083Z,8.23
2018-10-02T00:03:47.247Z,6.67
2018-10-02T00:06:15.506Z,7.10
2018-10-02T00:08:43.889Z,6.63
2018-10-02T00:11:16.505Z,6.03
2018-10-02T00:13:49.239Z,6.20
2018-10-02T00:16:17.632Z,6.53
2018-10-02T00:18:46.018Z,6.87
2018-10-02T00:21:14.208Z,6.53
2018-10-02T00:23:42.413Z,6.80
2018-10-02T00:26:10.595Z,6.93
2018-10-02T00:28:38.909Z,7.00
2018-10-02T00:31:08.397Z,7.57
2018-10-02T00:33:36.818Z,7.53
2018-10-02T00:36:05.232Z,7.93
2018-10-02T00:38:33.567Z,8.07
2018-10-02T00:41:01.765Z,8.03
2018-10-02T00:43:30.028Z,7.83
2018-10-02T00:45:58.274Z,8.80
2018-10-02T00:48:26.425Z,8.37
2018-10-02T00:50:54.637Z,7.57
2018-10-02T00:53:22.970Z,8.27
2018-10-02T00:55:51.171Z,7.00
2018-10-02T00:58:19.481Z,8.23
2018-10-02T01:00:47.686Z,8.00
2018-10-02T01:03:15.828Z,8.77
2018-10-02T01:05:44.330Z,8.23
2018-10-02T01:08:12.693Z,9.77
2018-10-02T01:10:42.243Z,8.77
2018-10-02T01:13:10.613Z,9.03
2018-10-02T01:15:38.933Z,8.70
2018-10-02T01:18:07.524Z,8.40
2018-10-02T01:20:35.890Z,8.10
2018-10-02T01:23:04.245Z,7.47
2018-10-02T01:25:32.664Z,7.50
2018-10-02T01:28:00.942Z,7.73
2018-10-02T01:30:29.110Z,7.80
2018-10-02T01:32:57.291Z,7.57
2018-10-02T01:35:25.808Z,7.47
2018-10-02T01:37:54.324Z,8.10
2018-10-02T01:40:22.559Z,8.77
2018-10-02T01:42:51.086Z,8.20
2018-10-02T01:45:19.472Z,8.97
2018-10-02T01:47:47.677Z,8.37
2018-10-02T01:50:15.872Z,9.17
2018-10-02T01:52:44.966Z,10.03
2018-10-02T01:55:13.158Z,9.40
2018-10-02T01:57:41.746Z,10.07
2018-10-02T02:00:10.043Z,10.33
2018-10-02T02:02:38.361Z,11.07
2018-10-02T02:05:07.104Z,10.07
2018-10-02T02:07:35.322Z,9.10
2018-10-02T02:10:03.772Z,9.17
2018-10-02T02:12:32.386Z,10.47
2018-10-02T02:15:00.769Z,10.37
2018-10-02T02:17:29.059Z,11.13
2018-10-02T02:19:57.510Z,10.17
2018-10-02T02:22:26.849Z,10.00
2018-10-02T02:24:55.134Z,11.23
2018-10-02T02:27:23.510Z,11.03
2018-10-02T02:29:51.709Z,10.83
2018-10-02T02:32:19.907Z,8.70
2018-10-02T02:34:48.089Z,9.77
2018-10-02T02:37:16.299Z,10.23
2018-10-02T02:39:44.653Z,11.23
2018-10-02T02:42:12.993Z,10.40
2018-10-02T02:44:41.355Z,10.03
2018-10-02T02:47:14.049Z,9.83
2018-10-02T02:49:46.484Z,10.50
2018-10-02T02:52:16.174Z,10.17
2018-10-02T02:54:44.342Z,9.87
2018-10-02T02:57:12.494Z,10.73
2018-10-02T02:59:40.819Z,10.73
2018-10-02T03:02:09.171Z,9.60
2018-10-02T03:04:37.418Z,11.73
2018-10-02T03:07:05.786Z,11.27
2018-10-02T03:09:34.010Z,10.77
2018-10-02T03:12:02.310Z,11.30
2018-10-02T03:14:30.652Z,12.03
2018-10-02T03:16:58.920Z,11.43
2018-10-02T03:19:27.205Z,11.50
2018-10-02T03:21:55.736Z,10.87
2018-10-02T03:24:24.108Z,10.90
2018-10-02T03:26:52.429Z,12.17
2018-10-02T03:29:20.792Z,12.33
2018-10-02T03:31:49.124Z,12.33
2018-10-02T03:34:17.379Z,11.53
2018-10-02T03:36:45.603Z,11.03
2018-10-02T03:39:13.806Z,10.87
2018-10-02T03:41:42.032Z,11.73
2018-10-02T03:44:10.299Z,10.73
2018-10-02T03:46:38.923Z,11.77
2018-10-02T03:49:07.452Z,11.13
2018-10-02T03:51:35.758Z,11.10
2018-10-02T03:54:03.974Z,10.87
2018-10-02T03:56:32.379Z,10.53
2018-10-02T03:59:00.689Z,10.57
2018-10-02T04:01:29.369Z,11.03
2018-10-02T04:03:57.745Z,10.17
2018-10-02T04:06:25.999Z,10.63
2018-10-02T04:08:54.291Z,10.40
2018-10-02T04:11:22.549Z,10.30
2018-10-02T04:13:51.070Z,11.40
2018-10-02T04:16:19.417Z,11.40
2018-10-02T04:18:47.798Z,11.57
2018-10-02T04:21:20.405Z,11.57
2018-10-02T04:23:48.729Z,11.30
2018-10-02T04:26:17.133Z,10.60
2018-10-02T04:28:45.428Z,10.83
2018-10-02T04:31:13.678Z,12.10
2018-10-02T04:33:42.116Z,11.17
2018-10-02T04:36:10.605Z,11.87
2018-10-02T04:38:38.965Z,11.30
2018-10-02T04:41:07.252Z,11.43
2018-10-02T04:43:35.570Z,11.13
2018-10-02T04:46:03.851Z,11.80
2018-10-02T04:48:32.122Z,11.60
2018-10-02T04:51:00.410Z,11.83
2018-10-02T04:53:28.862Z,11.80
2018-10-02T04:55:57.541Z,11.47
2018-10-02T04:58:25.810Z,11.53
2018-10-02T05:00:54.321Z,12.23
2018-10-02T05:03:22.763Z,11.63
2018-10-02T05:05:51.101Z,11.27
2018-10-02T05:08:19.505Z,10.83
2018-10-02T05:10:47.841Z,10.40
2018-10-02T05:13:16.450Z,10.80
2018-10-02T05:15:44.769Z,11.73
2018-10-02T05:18:13.482Z,10.03
2018-10-02T05:20:41.783Z,10.30
2018-10-02T05:23:10.164Z,10.07
2018-10-02T05:25:38.481Z,10.70
2018-10-02T05:28:06.934Z,10.27
2018-10-02T05:30:35.110Z,9.50
2018-10-02T05:33:03.397Z,10.10
2018-10-02T05:35:31.902Z,8.30
2018-10-02T05:38:01.031Z,10.00
2018-10-02T05:40:29.341Z,10.60
2018-10-02T05:42:57.658Z,10.53
2018-10-02T05:45:25.900Z,9.83
2018-10-02T05:47:54.690Z,9.83
2018-10-02T05:50:22.931Z,9.63
2018-10-02T05:52:51.224Z,10.37
2018-10-02T05:55:19.537Z,11.20
2018-10-02T05:57:47.834Z,11.93
2018-10-02T06:00:16.113Z,14.60
2018-10-02T06:02:44.472Z,13.83
2018-10-02T06:05:12.761Z,12.37
2018-10-02T06:07:40.999Z,11.70
2018-10-02T06:10:09.593Z,10.33
2018-10-02T06:12:38.001Z,10.23
2018-10-02T06:15:06.362Z,10.27
2018-10-02T06:17:34.692Z,10.87
2018-10-02T06:20:02.941Z,10.90
2018-10-02T06:22:31.304Z,10.97
2018-10-02T06:24:59.861Z,9.67
2018-10-02T06:27:28.179Z,10.10
2018-10-02T06:29:56.403Z,9.90
2018-10-02T06:32:24.779Z,10.67
2018-10-02T06:34:53.025Z,10.93
2018-10-02T06:37:24.291Z,9.00
2018-10-02T06:39:52.736Z,10.10
2018-10-02T06:42:27.013Z,10.80
2018-10-02T06:44:58.610Z,9.70
2018-10-02T06:47:42.073Z,9.70
2018-10-02T06:50:10.604Z,10.13
2018-10-02T06:52:39.255Z,9.57
2018-10-02T06:55:07.754Z,9.17
2018-10-02T06:57:36.042Z,8.50
2018-10-02T07:00:04.359Z,8.00
2018-10-02T07:02:32.575Z,6.90
2018-10-02T07:05:00.897Z,7.43
2018-10-02T07:07:29.155Z,7.67
2018-10-02T07:09:57.447Z,8.37
2018-10-02T07:12:25.716Z,8.30
2018-10-02T07:14:53.908Z,8.07
2018-10-02T07:17:22.284Z,8.37
2018-10-02T07:19:50.538Z,8.00
2018-10-02T07:22:18.750Z,9.13
2018-10-02T07:24:46.964Z,8.47
2018-10-02T07:27:15.332Z,8.30
2018-10-02T07:29:43.471Z,7.87
2018-10-02T07:32:11.691Z,7.77
2018-10-02T07:34:39.937Z,7.40
2018-10-02T07:37:08.079Z,6.63
2018-10-02T07:39:36.240Z,6.50
2018-10-02T07:42:04.579Z,6.27
2018-10-02T07:44:32.798Z,5.83
2018-10-02T07:47:01.084Z,5.03
2018-10-02T07:49:29.425Z,5.43
2018-10-02T07:51:57.638Z,6.13
2018-10-02T07:54:25.883Z,5.70
2018-10-02T07:56:54.438Z,5.00
2018-10-02T07:59:22.648Z,5.50
2018-10-02T08:01:50.906Z,4.97
2018-10-02T08:04:19.374Z,5.77
2018-10-02T08:06:47.631Z,5.20
2018-10-02T08:09:15.861Z,5.37
2018-10-02T08:11:44.263Z,6.97
2018-10-02T08:14:12.446Z,5.87
2018-10-02T08:16:40.722Z,5.47
2018-10-02T08:19:08.983Z,5.50
2018-10-02T08:21:37.311Z,4.93
2018-10-02T08:24:05.626Z,5.03
2018-10-02T08:26:33.950Z,4.63
2018-10-02T08:29:02.148Z,4.43
2018-10-02T08:31:30.312Z,4.60
2018-10-02T08:33:58.604Z,5.13
2018-10-02T08:36:27.013Z,5.03
2018-10-02T08:38:55.262Z,5.83
2018-10-02T08:41:23.535Z,4.80
2018-10-02T08:43:55.025Z,4.60
2018-10-02T08:46:23.212Z,4.40
2018-10-02T08:48:51.354Z,3.83
2018-10-02T08:51:19.599Z,3.60
2018-10-02T08:53:47.916Z,4.03
2018-10-02T08:56:16.119Z,3.20
2018-10-02T08:58:44.398Z,3.77
2018-10-02T09:01:12.719Z,3.73
2018-10-02T09:03:40.793Z,3.87
2018-10-02T09:06:09.033Z,3.87
2018-10-02T09:08:37.378Z,3.00
2018-10-02T09:11:05.608Z,3.53
2018-10-02T09:13:33.948Z,3.60
2018-10-02T09:16:02.466Z,2.80
2018-10-02T09:18:30.590Z,3.20
2018-10-02T09:20:58.938Z,2.90
2018-10-02T09:23:31.557Z,2.57
2018-10-02T09:25:59.870Z,2.77
2018-10-02T09:28:29.181Z,2.90
2018-10-02T09:31:01.758Z,2.53
2018-10-02T09:33:34.339Z,2.83
2018-10-02T09:36:06.880Z,3.50
2018-10-02T09:38:39.451Z,2.90
2018-10-02T09:41:12.008Z,2.70
2018-10-02T09:43:44.544Z,3.00
2018-10-02T09:46:12.825Z,3.37
2018-10-02T09:48:41.293Z,3.53
2018-10-02T09:51:09.641Z,2.73
2018-10-02T09:53:47.134Z,3.10
2018-10-02T09:56:33.028Z,3.60
2018-10-02T09:59:19.671Z,3.27
2018-10-02T10:02:09.861Z,3.03
2018-10-02T10:04:38.148Z,2.70
2018-10-02T10:07:06.363Z,3.27
2018-10-02T10:09:34.586Z,3.10
2018-10-02T10:12:03.468Z,3.17
2018-10-02T10:14:31.710Z,4.47
2018-10-02T10:16:59.961Z,3.70
2018-10-02T10:19:29.448Z,3.37
2018-10-02T10:21:57.747Z,3.27
2018-10-02T10:24:26.027Z,3.00
2018-10-02T10:26:54.358Z,3.03
2018-10-02T10:29:22.697Z,2.67
2018-10-02T10:31:50.947Z,2.73
2018-10-02T10:34:19.279Z,2.73
2018-10-02T10:36:47.638Z,2.90
2018-10-02T10:39:15.863Z,3.93
2018-10-02T10:41:44.188Z,4.30
2018-10-02T10:44:12.441Z,4.30
2018-10-02T10:46:40.882Z,2.97
2018-10-02T10:49:09.141Z,3.17
2018-10-02T10:51:37.497Z,2.60
2018-10-02T10:54:05.798Z,3.00
2018-10-02T10:56:34.164Z,3.43
2018-10-02T10:59:02.448Z,4.30
2018-10-02T11:01:30.684Z,4.53
2018-10-02T11:03:58.933Z,5.10
2018-10-02T11:06:28.113Z,4.63
2018-10-02T11:08:56.451Z,4.37
2018-10-02T11:11:24.887Z,5.00
2018-10-02T11:13:54.814Z,4.87
2018-10-02T11:16:23.103Z,3.43
2018-10-02T11:18:51.429Z,3.83
2018-10-02T11:21:19.977Z,3.50
2018-10-02T11:23:48.346Z,3.00
2018-10-02T11:26:16.758Z,3.57
2018-10-02T11:28:45.041Z,2.80
2018-10-02T11:31:13.499Z,2.50
2018-10-02T11:33:42.619Z,2.90
2018-10-02T11:36:10.923Z,2.83
2018-10-02T11:38:39.144Z,2.80
2018-10-02T11:41:07.487Z,2.60
2018-10-02T11:43:35.834Z,3.07
2018-10-02T11:46:03.968Z,2.97
2018-10-02T11:48:32.348Z,2.73
2018-10-02T11:51:00.687Z,2.00
2018-10-02T11:53:28.938Z,1.97
2018-10-02T11:55:57.458Z,1.90
2018-10-02T11:58:25.759Z,2.40
2018-10-02T12:00:54.156Z,3.00
2018-10-02T12:03:22.554Z,2.17
2018-10-02T12:05:50.763Z,2.70
2018-10-02T12:08:19.023Z,2.00
2018-10-02T12:10:47.319Z,2.50
2018-10-02T12:13:15.606Z,2.13
2018-10-02T12:15:43.838Z,2.07
2018-10-02T12:18:12.178Z,2.13
2018-10-02T12:20:40.468Z,2.40
2018-10-02T12:23:08.704Z,2.30
2018-10-02T12:25:37.118Z,2.17
2018-10-02T12:28:05.498Z,1.87
2018-10-02T12:30:33.839Z,2.17
2018-10-02T12:33:02.163Z,2.10
2018-10-02T12:35:30.679Z,2.30
2018-10-02T12:37:59.183Z,2.27
2018-10-02T12:40:27.618Z,2.23
2018-10-02T12:42:55.960Z,1.80
2018-10-02T12:45:25.362Z,2.53
2018-10-02T12:47:54.078Z,2.00
2018-10-02T12:50:23.249Z,2.43
2018-10-02T12:52:51.978Z,2.53
2018-10-02T12:55:20.165Z,2.43
2018-10-02T12:57:48.383Z,3.50
2018-10-02T13:00:16.730Z,3.07
2018-10-02T13:02:45.429Z,2.40
2018-10-02T13:05:13.688Z,3.17
2018-10-02T13:07:42.070Z,2.30
2018-10-02T13:10:11.193Z,2.47
2018-10-02T13:12:39.506Z,2.50
2018-10-02T13:15:07.735Z,2.33
2018-10-02T13:17:35.967Z,2.53
2018-10-02T13:20:04.326Z,3.37
2018-10-02T13:22:32.614Z,4.03
2018-10-02T13:25:00.923Z,3.77
2018-10-02T13:27:29.296Z,4.37
2018-10-02T13:29:57.622Z,5.63
2018-10-02T13:32:26.052Z,4.87
2018-10-02T13:34:54.200Z,4.73
2018-10-02T13:37:23.473Z,4.97
2018-10-02T13:39:51.727Z,4.93
2018-10-02T13:42:20.004Z,4.13
2018-10-02T13:44:48.335Z,2.97
2018-10-02T13:47:16.402Z,2.77
2018-10-02T13:49:44.598Z,2.80
2018-10-02T13:52:12.888Z,3.10
2018-10-02T13:54:41.164Z,2.50
2018-10-02T13:57:09.480Z,2.60
2018-10-02T13:59:37.759Z,2.63
2018-10-02T14:02:06.082Z,3.17
2018-10-02T14:04:34.293Z,3.03
2018-10-02T14:07:02.840Z,11.23
2018-10-02T14:09:31.130Z,3.90
2018-10-02T14:11:59.478Z,3.63
2018-10-02T14:14:27.778Z,3.10
2018-10-02T14:16:56.099Z,2.20
2018-10-02T14:19:24.618Z,1.83
2018-10-02T14:21:52.898Z,2.53
2018-10-02T14:24:21.098Z,2.40
2018-10-02T14:26:49.463Z,2.20
2018-10-02T14:29:17.699Z,2.47
2018-10-02T14:31:45.878Z,2.53
2018-10-02T14:34:14.226Z,2.80
2018-10-02T14:36:42.641Z,2.60
2018-10-02T14:39:11.785Z,1.40
2018-10-02T14:41:40.373Z,1.60
2018-10-02T14:44:08.712Z,1.70
2018-10-02T14:46:37.042Z,2.17
2018-10-02T14:49:05.252Z,2.13
2018-10-02T14:51:33.498Z,2.07
2018-10-02T14:54:02.370Z,2.20
2018-10-02T14:56:30.740Z,2.20
2018-10-02T14:58:59.023Z,2.50
2018-10-02T15:01:27.366Z,2.60
2018-10-02T15:03:55.647Z,3.63
2018-10-02T15:06:24.109Z,3.83
2018-10-02T15:08:52.432Z,2.37
2018-10-02T15:11:20.775Z,2.57
2018-10-02T15:13:49.020Z,3.40
2018-10-02T15:16:17.434Z,3.73
2018-10-02T15:18:45.820Z,2.87
2018-10-02T15:21:14.108Z,2.60
2018-10-02T15:23:42.440Z,2.77
2018-10-02T15:26:10.834Z,3.13
2018-10-02T15:28:39.151Z,3.03
2018-10-02T15:31:07.553Z,2.50
2018-10-02T15:33:35.906Z,1.77
2018-10-02T15:36:04.149Z,1.70
2018-10-02T15:38:32.419Z,2.23
2018-10-02T15:41:00.723Z,3.03
2018-10-02T15:43:29.152Z,3.07
2018-10-02T15:45:57.560Z,5.13
2018-10-02T15:48:25.776Z,5.07
2018-10-02T15:50:54.089Z,5.10
2018-10-02T15:53:22.398Z,4.90
2018-10-02T15:55:50.871Z,4.13
2018-10-02T15:58:19.201Z,3.80
2018-10-02T16:00:47.667Z,4.50
2018-10-02T16:03:16.022Z,5.40
2018-10-02T16:05:44.298Z,4.47
2018-10-02T16:08:12.952Z,4.07
2018-10-02T16:10:41.269Z,4.80
2018-10-02T16:13:09.727Z,5.60
2018-10-02T16:15:38.127Z,4.77
2018-10-02T16:18:07.016Z,4.97
2018-10-02T16:20:35.299Z,6.30
2018-10-02T16:23:03.801Z,6.20
2018-10-02T16:25:32.592Z,5.10
2018-10-02T16:28:01.036Z,4.80
2018-10-02T16:30:29.436Z,4.73
2018-10-02T16:32:57.877Z,4.00
2018-10-02T16:35:26.244Z,5.00
2018-10-02T16:37:54.630Z,4.07
2018-10-02T16:40:22.911Z,4.27
2018-10-02T16:42:51.248Z,3.90
2018-10-02T16:45:20.004Z,3.77
2018-10-02T16:47:48.393Z,3.47
2018-10-02T16:50:16.978Z,2.73
2018-10-02T16:52:45.772Z,2.87
2018-10-02T16:55:19.021Z,3.27
2018-10-02T16:57:47.686Z,3.83
2018-10-02T17:00:16.628Z,4.77
2018-10-02T17:02:44.884Z,4.00
2018-10-02T17:05:13.644Z,4.53
2018-10-02T17:07:42.383Z,4.80
2018-10-02T17:10:10.708Z,4.73
2018-10-02T17:12:39.316Z,4.70
2018-10-02T17:15:07.731Z,4.67
2018-10-02T17:17:36.032Z,4.40
2018-10-02T17:20:04.653Z,4.27
2018-10-02T17:22:33.038Z,3.90
2018-10-02T17:25:01.644Z,4.03
2018-10-02T17:27:29.975Z,3.53
2018-10-02T17:29:58.213Z,4.17
2018-10-02T17:32:26.549Z,4.43
2018-10-02T17:34:54.750Z,3.90
2018-10-02T17:37:23.242Z,4.20
2018-10-02T17:39:51.562Z,4.43
2018-10-02T17:42:20.068Z,4.00
2018-10-02T17:44:48.575Z,4.03
2018-10-02T17:47:17.190Z,4.70
2018-10-02T17:49:45.473Z,4.97
2018-10-02T17:52:13.908Z,4.57
2018-10-02T17:54:42.736Z,4.67
2018-10-02T17:57:14.070Z,4.43
2018-10-02T17:59:42.459Z,3.90
2018-10-02T18:02:12.468Z,3.93
2018-10-02T18:04:44.148Z,4.37
2018-10-02T18:07:12.713Z,4.20
2018-10-02T18:09:41.346Z,4.50
2018-10-02T18:12:12.905Z,5.10
2018-10-02T18:14:42.472Z,4.78
2018-10-02T18:17:10.818Z,4.67
2018-10-02T18:19:43.540Z,4.40
2018-10-02T18:22:12.084Z,6.70
2018-10-02T18:24:40.509Z,4.40
2018-10-02T18:27:12.533Z,4.90
2018-10-02T18:29:41.618Z,4.53
2018-10-02T18:32:13.217Z,4.30
2018-10-02T18:34:41.655Z,4.40
2018-10-02T18:37:14.406Z,4.83
2018-10-02T18:39:45.943Z,6.07
2018-10-02T18:42:15.408Z,5.17
2018-10-02T18:44:43.689Z,5.33
2018-10-02T18:47:13.404Z,5.17
2018-10-02T18:49:46.304Z,4.70
2018-10-02T18:52:20.203Z,4.93
2018-10-02T18:54:49.347Z,4.77
2018-10-02T18:57:21.837Z,5.57
2018-10-02T18:59:50.123Z,4.87
2018-10-02T19:02:19.656Z,4.73
2018-10-02T19:04:49.066Z,4.57
2018-10-02T19:07:17.712Z,4.50
2018-10-02T19:09:46.128Z,3.83
2018-10-02T19:12:20.178Z,4.00
2018-10-02T19:14:48.580Z,5.17
2018-10-02T19:17:17.233Z,3.80
2018-10-02T19:19:53.967Z,3.77
2018-10-02T19:22:26.440Z,4.20
2018-10-02T19:24:55.250Z,4.17
2018-10-02T19:27:23.819Z,3.50
2018-10-02T19:29:56.674Z,4.00
2018-10-02T19:32:26.033Z,4.33
2018-10-02T19:34:54.453Z,3.50
2018-10-02T19:37:27.711Z,3.50
2018-10-02T19:39:57.139Z,3.93
2018-10-02T19:42:25.531Z,4.60
2018-10-02T19:44:54.687Z,4.80
2018-10-02T19:47:24.163Z,3.97
2018-10-02T19:49:52.497Z,4.47
2018-10-02T19:52:22.188Z,5.00
2018-10-02T19:54:50.879Z,5.40
2018-10-02T19:57:19.619Z,4.17
2018-10-02T19:59:48.169Z,4.03
2018-10-02T20:02:17.503Z,5.13
2018-10-02T20:04:46.691Z,8.00
2018-10-02T20:07:15.320Z,7.43
2018-10-02T20:09:46.644Z,5.10
2018-10-02T20:12:15.257Z,3.80
2018-10-02T20:14:44.050Z,3.90
2018-10-02T20:17:13.097Z,3.83
2018-10-02T20:19:42.449Z,4.37
2018-10-02T20:22:12.049Z,4.70
2018-10-02T20:24:40.699Z,4.63
2018-10-02T20:27:09.926Z,5.00
2018-10-02T20:29:38.777Z,5.03
2018-10-02T20:32:08.164Z,3.80
2018-10-02T20:34:37.818Z,3.70
2018-10-02T20:37:06.657Z,3.70
2018-10-02T20:39:35.170Z,3.90
2018-10-02T20:42:04.117Z,3.73
2018-10-02T20:44:32.574Z,3.73
2018-10-02T20:47:01.288Z,4.03
2018-10-02T20:49:29.774Z,3.83
2018-10-02T20:51:58.105Z,3.57
2018-10-02T20:54:26.508Z,3.60
2018-10-02T20:56:54.911Z,3.77
2018-10-02T20:59:23.260Z,4.03
2018-10-02T21:01:51.676Z,3.97
2018-10-02T21:04:19.977Z,3.47
2018-10-02T21:06:48.290Z,3.43
2018-10-02T21:09:16.629Z,3.60
2018-10-02T21:11:45.050Z,4.10
2018-10-02T21:14:13.408Z,3.60
2018-10-02T21:16:43.490Z,3.07
2018-10-02T21:19:13.487Z,3.00
2018-10-02T21:21:43.333Z,3.23
2018-10-02T21:24:13.338Z,2.77
2018-10-02T21:26:43.481Z,3.03
2018-10-02T21:29:13.851Z,3.17
2018-10-02T21:31:43.732Z,2.77
2018-10-02T21:34:12.089Z,3.27
2018-10-02T21:36:40.620Z,2.80
2018-10-02T21:39:09.915Z,2.97
2018-10-02T21:41:38.680Z,2.80
2018-10-02T21:44:07.019Z,2.63
2018-10-02T21:46:37.854Z,3.27
2018-10-02T21:49:06.239Z,2.90
2018-10-02T21:51:34.527Z,2.90
2018-10-02T21:54:02.851Z,3.40
2018-10-02T21:56:31.219Z,4.20
2018-10-02T21:58:59.700Z,3.70
2018-10-02T22:01:31.711Z,3.53
2018-10-02T22:04:00.072Z,3.63
2018-10-02T22:06:28.378Z,3.63
2018-10-02T22:08:56.707Z,4.10
2018-10-02T22:11:25.023Z,4.10
2018-10-02T22:13:53.279Z,4.30
2018-10-02T22:16:21.530Z,4.63
2018-10-02T22:18:49.871Z,4.87
2018-10-02T22:21:18.211Z,4.63
2018-10-02T22:23:46.559Z,4.10
2018-10-02T22:26:14.990Z,5.63
2018-10-02T22:28:43.277Z,5.17
2018-10-02T22:31:11.619Z,4.30
2018-10-02T22:33:40.138Z,5.13
2018-10-02T22:36:08.432Z,5.60
2018-10-02T22:38:36.724Z,4.80
2018-10-02T22:41:05.224Z,5.60
2018-10-02T22:43:33.614Z,5.20
2018-10-02T22:46:01.864Z,5.30
2018-10-02T22:48:30.337Z,4.70
2018-10-02T22:50:58.919Z,5.30
2018-10-02T22:53:27.243Z,5.73
2018-10-02T22:55:55.540Z,5.13
2018-10-02T22:58:23.860Z,5.30
2018-10-02T23:00:52.262Z,4.50
2018-10-02T23:03:20.662Z,5.20
2018-10-02T23:05:50.010Z,5.20
2018-10-02T23:08:18.231Z,5.83
2018-10-02T23:10:46.513Z,5.23
2018-10-02T23:13:14.760Z,5.67
2018-10-02T23:15:43.010Z,5.30
2018-10-02T23:18:11.299Z,4.73
2018-10-02T23:20:39.864Z,4.27
2018-10-02T23:23:09.631Z,5.20
2018-10-02T23:25:37.960Z,4.80
2018-10-02T23:28:06.261Z,4.63
2018-10-02T23:30:34.479Z,4.20
2018-10-02T23:33:02.841Z,4.93
2018-10-02T23:35:31.350Z,5.37
2018-10-02T23:37:59.783Z,5.23
2018-10-02T23:40:28.227Z,5.07
2018-10-02T23:42:56.550Z,6.30
2018-10-02T23:45:24.961Z,6.27
2018-10-02T23:47:53.214Z,6.43
2018-10-02T23:50:22.144Z,7.00
2018-10-02T23:52:50.386Z,7.27
2018-10-02T23:55:18.696Z,7.20
2018-10-02T23:57:46.960Z,7.43
